Time;durP1;ratioP1;P1;durP2;ratioP2;P2;SDS_P1;SDS_P2;PMS_P1;PMS_P2;Temp;Humidity;BMP_temperature;BMP_pressure;BME280_temperature;BME280_humidity;BME280_pressure;Samples;Min_cycle;Max_cycle;Signal;HPM_P1;HPM_P2
2022/08/29 00:01:39;;;;;;;15.90;14.60;;;16.30;99.90;;;;;;4963252;28;20208;-78
2022/08/29 00:04:06;;;;;;;15.77;14.57;;;16.30;99.90;;;;;;4958341;28;20289;-78
2022/08/29 00:06:33;;;;;;;16.77;15.47;;;16.30;99.90;;;;;;4952187;28;20646;-78
2022/08/29 00:09:01;;;;;;;16.40;15.10;;;16.20;99.90;;;;;;4959497;28;20275;-78
2022/08/29 00:11:28;;;;;;;16.57;15.27;;;16.10;99.90;;;;;;4955528;28;20665;-78
2022/08/29 00:13:55;;;;;;;16.93;15.43;;;16.10;99.90;;;;;;4960646;28;20198;-78
2022/08/29 00:16:22;;;;;;;16.63;15.30;;;16.10;99.90;;;;;;4962370;28;20192;-79
2022/08/29 00:18:48;;;;;;;16.50;15.00;;;16.10;99.90;;;;;;4972371;28;20234;-78
2022/08/29 00:21:15;;;;;;;16.70;15.37;;;16.10;99.90;;;;;;4964595;28;20195;-78
2022/08/29 00:23:44;;;;;;;16.90;15.57;;;16.10;99.90;;;;;;4959741;28;20201;-79
2022/08/29 00:26:13;;;;;;;17.13;15.73;;;16.10;99.90;;;;;;4963039;28;20217;-78
2022/08/29 00:28:40;;;;;;;17.73;16.33;;;16.00;99.90;;;;;;4959260;28;20222;-78
2022/08/29 00:31:07;;;;;;;17.23;15.73;;;16.00;99.90;;;;;;4958025;28;20710;-80
2022/08/29 00:33:34;;;;;;;17.13;15.73;;;16.00;99.90;;;;;;4962738;28;20209;-78
2022/08/29 00:36:01;;;;;;;16.93;15.53;;;16.00;99.90;;;;;;4961396;28;20205;-78
2022/08/29 00:38:28;;;;;;;16.53;15.13;;;15.90;99.90;;;;;;4960383;28;20275;-78
2022/08/29 00:40:56;;;;;;;16.53;15.23;;;16.00;99.90;;;;;;4971963;28;20223;-78
2022/08/29 00:43:27;;;;;;;16.67;15.37;;;15.80;99.90;;;;;;4967341;28;20696;-78
2022/08/29 00:46:02;;;;;;;17.27;15.87;;;15.80;99.90;;;;;;4963338;28;20220;-78
2022/08/29 00:48:29;;;;;;;17.83;16.43;;;15.80;99.90;;;;;;4964636;28;20203;-78
2022/08/29 00:51:01;;;;;;;17.30;15.90;;;15.70;99.90;;;;;;4963563;28;20198;-78
2022/08/29 00:53:33;;;;;;;16.20;15.00;;;15.70;99.90;;;;;;4984860;28;20438;-78
2022/08/29 00:56:02;;;;;;;16.97;15.67;;;15.70;99.90;;;;;;4966551;28;20226;-78
2022/08/29 00:58:34;;;;;;;16.80;15.40;;;15.70;99.90;;;;;;4959184;28;20674;-80
2022/08/29 01:01:01;;;;;;;16.43;15.13;;;15.70;99.90;;;;;;4963895;28;20205;-78
2022/08/29 01:03:32;;;;;;;17.10;15.67;;;15.60;99.90;;;;;;4979064;28;20256;-78
2022/08/29 01:05:59;;;;;;;16.87;15.57;;;15.60;99.90;;;;;;4976555;28;20307;-78
2022/08/29 01:08:26;;;;;;;17.30;15.80;;;15.60;99.90;;;;;;4960097;28;20199;-79
2022/08/29 01:13:42;;;;;;;16.63;15.33;;;15.60;99.90;;;;;;4960830;28;20279;-79
2022/08/29 01:16:11;;;;;;;17.30;15.90;;;15.60;99.90;;;;;;4957585;28;20575;-78
2022/08/29 01:18:41;;;;;;;17.60;16.03;;;15.50;99.90;;;;;;4962842;28;20276;-78
2022/08/29 01:21:17;;;;;;;18.00;16.60;;;15.50;99.90;;;;;;4965709;28;20250;-78
2022/08/29 01:23:50;;;;;;;17.93;16.37;;;15.50;99.90;;;;;;4960228;28;20203;-77
2022/08/29 01:26:19;;;;;;;18.03;16.53;;;15.50;99.90;;;;;;4965905;28;20849;-78
2022/08/29 01:28:50;;;;;;;18.70;17.20;;;15.40;99.90;;;;;;4984086;28;20225;-79
2022/08/29 01:31:21;;;;;;;17.37;15.97;;;15.40;99.90;;;;;;4966100;28;20195;-78
2022/08/29 01:33:50;;;;;;;19.57;17.87;;;15.40;99.90;;;;;;4956883;28;20269;-78
2022/08/29 01:36:20;;;;;;;18.50;16.90;;;15.40;99.90;;;;;;4989346;28;20252;-78
2022/08/29 01:38:48;;;;;;;18.57;16.97;;;15.30;99.90;;;;;;4958884;28;20298;-78
2022/08/29 01:41:16;;;;;;;17.90;16.50;;;15.30;99.90;;;;;;4955687;28;20656;-79
2022/08/29 01:43:46;;;;;;;19.57;17.80;;;15.30;99.90;;;;;;4958644;28;20674;-79
2022/08/29 01:46:15;;;;;;;18.00;16.50;;;15.30;99.90;;;;;;4957322;28;20227;-79
2022/08/29 01:48:45;;;;;;;19.13;17.67;;;15.30;99.90;;;;;;4965829;28;20203;-78
2022/08/29 01:51:13;;;;;;;17.80;16.47;;;15.30;99.90;;;;;;4958383;28;20204;-78
2022/08/29 01:53:40;;;;;;;18.37;16.90;;;15.30;99.90;;;;;;4964490;28;20210;-80
2022/08/29 01:56:13;;;;;;;18.67;16.93;;;15.20;99.90;;;;;;4956985;28;20205;-78
2022/08/29 01:58:41;;;;;;;17.63;16.27;;;15.20;99.90;;;;;;4963770;28;20200;-80
2022/08/29 02:01:10;;;;;;;18.23;16.83;;;15.20;99.90;;;;;;4956724;28;20611;-78
2022/08/29 02:03:37;;;;;;;17.50;16.20;;;15.20;99.90;;;;;;4972272;28;20203;-78
2022/08/29 02:06:06;;;;;;;18.33;16.80;;;15.10;99.90;;;;;;4957796;28;20251;-76
2022/08/29 02:08:33;;;;;;;18.47;16.97;;;15.10;99.90;;;;;;4958431;28;20206;-78
2022/08/29 02:11:00;;;;;;;18.57;17.17;;;15.10;99.90;;;;;;4962675;28;20200;-78
2022/08/29 02:13:28;;;;;;;18.03;16.63;;;15.10;99.90;;;;;;4958439;28;20230;-78
2022/08/29 02:15:55;;;;;;;19.27;17.73;;;15.10;99.90;;;;;;4957887;28;20203;-78
2022/08/29 02:18:23;;;;;;;19.43;17.83;;;15.00;99.90;;;;;;4966968;28;20668;-79
2022/08/29 02:20:50;;;;;;;19.73;18.23;;;15.00;99.90;;;;;;4962237;28;20735;-79
2022/08/29 02:23:16;;;;;;;19.17;17.60;;;15.00;99.90;;;;;;4953747;28;20251;-78
2022/08/29 02:25:46;;;;;;;18.87;17.47;;;15.00;99.90;;;;;;4968770;28;20242;-78
2022/08/29 02:28:16;;;;;;;18.83;17.33;;;15.00;99.90;;;;;;4977153;28;20228;-81
2022/08/29 02:30:48;;;;;;;18.73;17.30;;;15.00;99.90;;;;;;4970633;28;20697;-78
2022/08/29 02:33:17;;;;;;;19.37;17.87;;;14.90;99.90;;;;;;4953900;28;20228;-79
2022/08/29 02:35:47;;;;;;;19.03;17.53;;;14.90;99.90;;;;;;4960791;28;20677;-78
2022/08/29 02:38:15;;;;;;;19.43;17.73;;;14.80;99.90;;;;;;4964731;28;20200;-79
2022/08/29 02:40:43;;;;;;;18.77;17.17;;;14.80;99.90;;;;;;4979805;23;20234;-79
2022/08/29 02:43:10;;;;;;;18.20;16.80;;;14.80;99.90;;;;;;4969092;28;20204;-77
2022/08/29 02:45:38;;;;;;;20.67;18.97;;;14.70;99.90;;;;;;4971079;28;20223;-76
2022/08/29 02:48:05;;;;;;;20.20;18.53;;;14.70;99.90;;;;;;4973025;28;20205;-76
2022/08/29 02:50:32;;;;;;;19.37;17.87;;;14.70;99.90;;;;;;4969382;28;20217;-77
2022/08/29 02:53:00;;;;;;;18.90;17.50;;;14.70;99.90;;;;;;4955558;28;20217;-77
2022/08/29 02:55:27;;;;;;;19.47;18.07;;;14.70;99.90;;;;;;4959087;28;20202;-77
2022/08/29 02:57:54;;;;;;;19.30;17.80;;;14.70;99.90;;;;;;4955546;28;20213;-77
2022/08/29 03:00:24;;;;;;;19.03;17.67;;;14.70;99.90;;;;;;4966427;28;20226;-77
2022/08/29 03:02:52;;;;;;;18.00;16.60;;;14.70;99.90;;;;;;4955441;28;20201;-77
2022/08/29 03:05:21;;;;;;;18.77;17.27;;;14.70;99.90;;;;;;4951840;28;20202;-76
2022/08/29 03:07:48;;;;;;;20.43;18.83;;;14.70;99.90;;;;;;4961415;28;20272;-76
2022/08/29 03:10:17;;;;;;;20.40;18.80;;;14.70;99.90;;;;;;4966093;28;20226;-77
2022/08/29 03:12:44;;;;;;;22.07;20.07;;;14.70;99.90;;;;;;4972618;28;20257;-78
2022/08/29 03:15:12;;;;;;;22.20;20.10;;;14.70;99.90;;;;;;4971069;28;20274;-76
2022/08/29 03:17:39;;;;;;;22.60;20.67;;;14.70;99.90;;;;;;4957442;28;20270;-77
2022/08/29 03:20:08;;;;;;;22.17;20.17;;;14.70;99.90;;;;;;4957257;28;20230;-76
2022/08/29 03:22:36;;;;;;;21.43;19.73;;;14.70;99.90;;;;;;4963718;28;20271;-77
2022/08/29 03:25:04;;;;;;;23.27;21.03;;;14.70;99.90;;;;;;4961467;28;20202;-77
2022/08/29 03:27:33;;;;;;;21.13;19.40;;;14.70;99.90;;;;;;4959461;28;20213;-77
2022/08/29 03:30:00;;;;;;;20.57;18.87;;;14.70;99.90;;;;;;4956464;28;20307;-78
2022/08/29 03:32:28;;;;;;;21.90;20.20;;;14.60;99.90;;;;;;4959495;28;20288;-76
2022/08/29 03:34:55;;;;;;;21.07;19.47;;;14.60;99.90;;;;;;4955052;28;20197;-76
2022/08/29 03:37:22;;;;;;;20.53;18.87;;;14.60;99.90;;;;;;4960429;28;20198;-76
2022/08/29 03:39:48;;;;;;;20.63;19.07;;;14.50;99.90;;;;;;4961959;28;20230;-79
2022/08/29 03:42:15;;;;;;;21.03;19.33;;;14.60;99.90;;;;;;4962270;28;20258;-78
2022/08/29 03:44:43;;;;;;;21.23;19.53;;;14.50;99.90;;;;;;4955635;28;20211;-78
2022/08/29 03:47:10;;;;;;;21.90;20.00;;;14.50;99.90;;;;;;4965018;28;20698;-77
2022/08/29 03:49:38;;;;;;;20.30;18.73;;;14.50;99.90;;;;;;4973638;28;20259;-80
2022/08/29 03:52:05;;;;;;;19.13;17.77;;;14.50;99.90;;;;;;4961820;28;20290;-77
2022/08/29 03:54:32;;;;;;;20.33;18.83;;;14.40;99.90;;;;;;4975430;28;20655;-77
2022/08/29 03:56:59;;;;;;;19.60;18.13;;;14.40;99.90;;;;;;4967519;28;20198;-78
2022/08/29 03:59:26;;;;;;;21.13;19.43;;;14.40;99.90;;;;;;4964047;28;20215;-78
2022/08/29 04:01:56;;;;;;;20.97;19.27;;;14.40;99.90;;;;;;4958691;28;20675;-78
2022/08/29 04:07:08;;;;;;;20.17;18.77;;;14.40;99.90;;;;;;4956166;28;20321;-75
2022/08/29 04:09:36;;;;;;;20.67;19.07;;;14.40;99.90;;;;;;4968042;28;20269;-76
2022/08/29 04:12:04;;;;;;;21.27;19.63;;;14.30;99.90;;;;;;4958462;28;20211;-76
2022/08/29 04:14:31;;;;;;;23.53;21.47;;;14.30;99.90;;;;;;4974478;28;20194;-76
2022/08/29 04:17:00;;;;;;;23.50;21.57;;;14.30;99.90;;;;;;4958117;28;20738;-77
2022/08/29 04:19:27;;;;;;;23.30;21.33;;;14.20;99.90;;;;;;4960753;28;20221;-76
2022/08/29 04:21:53;;;;;;;22.83;21.00;;;14.20;99.90;;;;;;4964166;28;20261;-76
2022/08/29 04:24:20;;;;;;;22.20;20.40;;;14.20;99.90;;;;;;4959551;28;20233;-77
2022/08/29 04:26:47;;;;;;;21.77;20.07;;;14.20;99.90;;;;;;4963685;28;20215;-76
2022/08/29 04:29:14;;;;;;;22.00;20.27;;;14.20;99.90;;;;;;4964025;28;20226;-77
2022/08/29 04:31:42;;;;;;;21.60;19.90;;;14.20;99.90;;;;;;4963500;28;20574;-76
2022/08/29 04:34:12;;;;;;;21.20;19.50;;;14.20;99.90;;;;;;4967058;28;20201;-77
2022/08/29 04:36:43;;;;;;;21.07;19.33;;;14.10;99.90;;;;;;4961652;28;20249;-76
2022/08/29 04:39:10;;;;;;;21.00;19.40;;;14.10;99.90;;;;;;4979039;28;20574;-77
2022/08/29 04:41:40;;;;;;;21.47;19.70;;;14.10;99.90;;;;;;4966116;28;20268;-78
2022/08/29 04:44:09;;;;;;;21.97;20.17;;;14.20;99.90;;;;;;4974380;28;20574;-77
2022/08/29 04:46:36;;;;;;;22.40;20.53;;;14.10;99.90;;;;;;4966556;28;20318;-78
2022/08/29 04:49:03;;;;;;;22.37;20.57;;;14.20;99.90;;;;;;4964810;28;20253;-78
2022/08/29 04:51:33;;;;;;;22.23;20.50;;;14.20;99.90;;;;;;4967074;28;20205;-78
2022/08/29 04:53:59;;;;;;;22.53;20.67;;;14.20;99.90;;;;;;4968861;28;20197;-77
2022/08/29 04:56:26;;;;;;;23.17;21.17;;;14.20;99.90;;;;;;4970258;28;20210;-80
2022/08/29 04:58:53;;;;;;;22.50;20.47;;;14.20;99.90;;;;;;4962225;28;20210;-79
2022/08/29 05:01:23;;;;;;;22.90;20.97;;;14.20;99.90;;;;;;4968725;28;20202;-78
2022/08/29 05:03:51;;;;;;;22.00;20.40;;;14.20;99.90;;;;;;4969497;28;20210;-78
2022/08/29 05:06:20;;;;;;;23.00;21.00;;;14.20;99.90;;;;;;4974702;28;20224;-79
2022/08/29 05:08:48;;;;;;;22.23;20.33;;;14.20;99.90;;;;;;4962479;28;20274;-78
2022/08/29 05:11:18;;;;;;;22.53;20.60;;;14.30;99.90;;;;;;4965176;28;20214;-77
2022/08/29 05:13:45;;;;;;;23.00;20.97;;;14.40;99.90;;;;;;4981456;28;20206;-77
2022/08/29 05:16:14;;;;;;;22.00;20.40;;;14.40;99.90;;;;;;4962915;28;20582;-80
2022/08/29 05:18:45;;;;;;;21.43;19.57;;;14.50;99.90;;;;;;4957450;28;20202;-78
2022/08/29 05:21:12;;;;;;;21.47;19.87;;;14.50;99.90;;;;;;4964376;28;20215;-78
2022/08/29 05:23:39;;;;;;;21.23;19.53;;;14.70;99.90;;;;;;4962246;28;20305;-77
2022/08/29 05:26:07;;;;;;;20.97;19.30;;;14.70;99.90;;;;;;4985349;28;20698;-78
2022/08/29 05:28:36;;;;;;;20.60;19.07;;;14.80;99.90;;;;;;4960049;28;20199;-79
2022/08/29 05:31:03;;;;;;;20.70;19.20;;;14.80;99.90;;;;;;4969210;28;20227;-77
2022/08/29 05:33:38;;;;;;;20.83;19.27;;;15.00;99.90;;;;;;4970125;28;20250;-77
2022/08/29 05:36:07;;;;;;;21.60;19.80;;;15.10;99.90;;;;;;4964236;28;20257;-77
2022/08/29 05:38:34;;;;;;;20.80;19.20;;;15.30;99.90;;;;;;4975336;28;20202;-79
2022/08/29 05:41:01;;;;;;;21.27;19.77;;;15.50;99.90;;;;;;4973911;28;20263;-78
2022/08/29 05:43:30;;;;;;;21.17;19.67;;;15.60;99.90;;;;;;4971651;28;20287;-78
2022/08/29 05:46:02;;;;;;;21.20;19.63;;;15.70;99.90;;;;;;4973239;28;20196;-77
2022/08/29 05:48:29;;;;;;;20.17;18.70;;;15.80;99.90;;;;;;4973971;28;20205;-79
2022/08/29 05:50:57;;;;;;;20.37;18.77;;;15.90;99.90;;;;;;4973425;28;20239;-78
2022/08/29 05:53:23;;;;;;;19.97;18.57;;;16.00;99.90;;;;;;4972758;28;20675;-79
2022/08/29 05:55:50;;;;;;;19.27;17.87;;;16.00;99.90;;;;;;4970626;28;20208;-79
2022/08/29 05:58:18;;;;;;;19.70;18.40;;;16.10;99.90;;;;;;4970150;28;20205;-78
2022/08/29 06:00:47;;;;;;;20.23;18.73;;;16.10;99.90;;;;;;4973080;28;20229;-78
2022/08/29 06:03:14;;;;;;;19.70;18.23;;;16.20;99.90;;;;;;4974544;28;20192;-77
2022/08/29 06:05:41;;;;;;;18.97;17.67;;;16.30;99.90;;;;;;4970906;28;20200;-78
2022/08/29 06:08:09;;;;;;;19.00;17.70;;;16.40;99.90;;;;;;4956946;28;20239;-78
2022/08/29 06:10:41;;;;;;;20.23;18.80;;;16.50;99.90;;;;;;4964573;28;20666;-78
2022/08/29 06:13:08;;;;;;;20.70;19.13;;;16.60;99.90;;;;;;4974434;28;20224;-79
2022/08/29 06:15:34;;;;;;;19.77;18.27;;;16.70;99.90;;;;;;4974626;28;20231;-77
2022/08/29 06:18:03;;;;;;;20.17;18.67;;;16.80;99.90;;;;;;4974819;28;20202;-79
2022/08/29 06:20:30;;;;;;;19.77;18.17;;;16.90;99.90;;;;;;4972944;28;20299;-78
2022/08/29 06:22:57;;;;;;;20.43;19.07;;;17.10;99.90;;;;;;4974673;28;20212;-78
2022/08/29 06:25:23;;;;;;;12.03;10.83;;;17.20;99.90;;;;;;4974143;28;20577;-77
2022/08/29 06:27:53;;;;;;;11.90;10.70;;;17.30;99.90;;;;;;4967013;28;20639;-78
2022/08/29 06:30:21;;;;;;;11.07;10.07;;;17.40;99.90;;;;;;4974296;28;20239;-79
2022/08/29 06:32:48;;;;;;;10.73;9.73;;;17.50;99.90;;;;;;4965873;28;20209;-78
2022/08/29 06:35:16;;;;;;;11.57;10.47;;;17.60;99.90;;;;;;4970099;28;20198;-79
2022/08/29 06:37:43;;;;;;;12.33;11.03;;;17.70;99.90;;;;;;4962876;28;20661;-79
2022/08/29 06:40:11;;;;;;;11.50;10.40;;;17.80;99.90;;;;;;4969407;28;20229;-79
2022/08/29 06:42:38;;;;;;;11.33;10.23;;;17.80;99.90;;;;;;4971626;28;20384;-79
2022/08/29 06:45:07;;;;;;;12.37;11.17;;;17.90;99.90;;;;;;4973231;28;20203;-78
2022/08/29 06:47:36;;;;;;;11.50;10.40;;;17.90;99.90;;;;;;4974806;28;20217;-79
2022/08/29 06:50:05;;;;;;;10.83;9.83;;;18.00;99.90;;;;;;4969434;28;20231;-78
2022/08/29 06:52:53;;;;;;;10.83;9.73;;;18.00;99.90;;;;;;4969481;28;20190;-78
2022/08/29 06:56:21;;;;;;;;;;;;;;;;;;;;;
2022/08/29 06:58:49;;;;;;;11.23;10.10;;;18.20;99.90;;;;;;4961822;28;20194;-82
2022/08/29 07:01:17;;;;;;;12.10;10.83;;;18.20;99.90;;;;;;4968431;28;20221;-78
2022/08/29 07:03:44;;;;;;;12.77;11.70;;;18.20;99.90;;;;;;4964298;28;20210;-79
2022/08/29 07:06:12;;;;;;;11.10;10.07;;;18.40;99.90;;;;;;4957861;28;20202;-77
2022/08/29 07:08:40;;;;;;;12.27;10.47;;;18.40;99.90;;;;;;4961470;28;20223;-76
2022/08/29 07:11:07;;;;;;;13.73;12.53;;;18.50;99.90;;;;;;4961269;28;20211;-76
2022/08/29 07:13:34;;;;;;;10.90;9.80;;;18.60;99.90;;;;;;4959706;28;20274;-78
2022/08/29 07:16:01;;;;;;;10.93;9.83;;;18.80;99.90;;;;;;4956723;28;20610;-78
2022/08/29 07:18:29;;;;;;;15.20;13.80;;;19.00;99.90;;;;;;4962867;28;20255;-78
2022/08/29 07:20:55;;;;;;;11.73;10.57;;;19.30;99.90;;;;;;4960495;28;20725;-76
2022/08/29 07:23:22;;;;;;;13.37;12.07;;;19.70;99.90;;;;;;4965649;28;20674;-77
2022/08/29 07:25:50;;;;;;;15.20;13.70;;;20.10;99.90;;;;;;4959836;28;20193;-78
2022/08/29 07:28:17;;;;;;;16.80;15.43;;;20.60;99.90;;;;;;4961603;28;20624;-78
2022/08/29 07:30:44;;;;;;;18.00;16.67;;;21.00;99.90;;;;;;4976603;28;20271;-77
2022/08/29 07:33:11;;;;;;;17.70;16.20;;;21.30;99.90;;;;;;4974474;28;20244;-77
2022/08/29 07:35:37;;;;;;;13.93;12.73;;;21.50;99.90;;;;;;4976161;28;20201;-76
2022/08/29 07:38:05;;;;;;;11.63;10.47;;;21.70;99.90;;;;;;4976600;28;20671;-76
2022/08/29 07:40:32;;;;;;;13.20;12.00;;;22.20;99.90;;;;;;4976334;28;20280;-77
2022/08/29 07:43:00;;;;;;;12.80;11.63;;;22.40;99.90;;;;;;4975104;28;20205;-77
2022/08/29 07:45:27;;;;;;;13.43;12.23;;;22.60;99.90;;;;;;4975550;28;20201;-76
2022/08/29 07:47:54;;;;;;;10.47;9.47;;;23.00;99.90;;;;;;4966492;28;20222;-75
2022/08/29 07:50:21;;;;;;;9.47;8.57;;;23.30;99.90;;;;;;4968393;28;20320;-78
2022/08/29 07:52:48;;;;;;;12.20;11.20;;;23.40;99.90;;;;;;4964114;28;20215;-77
2022/08/29 07:55:15;;;;;;;10.07;9.17;;;23.80;99.90;;;;;;4965811;28;20652;-76
2022/08/29 07:57:41;;;;;;;9.50;8.60;;;24.40;99.90;;;;;;4975914;28;20194;-76
2022/08/29 08:00:11;;;;;;;9.97;8.90;;;24.60;99.90;;;;;;4963517;28;20779;-76
2022/08/29 08:02:40;;;;;;;13.10;11.63;;;24.80;99.90;;;;;;4959407;28;20688;-76
2022/08/29 08:05:08;;;;;;;10.90;8.40;;;25.10;99.90;;;;;;4964153;28;20664;-75
2022/08/29 08:07:35;;;;;;;13.30;11.47;;;25.20;99.90;;;;;;4965608;28;20213;-78
2022/08/29 08:10:02;;;;;;;13.10;11.77;;;24.90;99.90;;;;;;4971544;28;20218;-80
2022/08/29 08:12:29;;;;;;;11.30;10.10;;;24.70;99.90;;;;;;4958455;28;20289;-77
2022/08/29 08:14:56;;;;;;;12.47;11.47;;;25.00;99.90;;;;;;4974639;28;20198;-77
2022/08/29 08:17:26;;;;;;;14.70;13.40;;;25.40;99.90;;;;;;4972961;28;20205;-78
2022/08/29 08:19:53;;;;;;;13.47;12.37;;;25.50;99.90;;;;;;4976142;28;20235;-78
2022/08/29 08:22:20;;;;;;;12.60;11.60;;;25.50;99.90;;;;;;4973960;28;20264;-80
2022/08/29 08:24:47;;;;;;;12.30;11.20;;;25.80;99.90;;;;;;4976294;28;20202;-78
2022/08/29 08:27:14;;;;;;;12.20;11.20;;;26.20;99.90;;;;;;4965102;28;20214;-81
2022/08/29 08:29:42;;;;;;;9.97;9.00;;;26.50;99.90;;;;;;4969179;28;20230;-79
2022/08/29 08:32:09;;;;;;;12.77;11.53;;;26.70;99.90;;;;;;4964406;28;20198;-78
2022/08/29 08:34:37;;;;;;;9.33;7.40;;;26.50;99.90;;;;;;4973337;28;20206;-79
2022/08/29 08:37:07;;;;;;;10.93;9.87;;;26.40;99.90;;;;;;4965543;28;20202;-79
2022/08/29 08:39:34;;;;;;;10.87;9.87;;;26.50;99.90;;;;;;4974633;28;20730;-79
2022/08/29 08:42:09;;;;;;;13.57;12.37;;;26.40;99.90;;;;;;4976251;28;20202;-78
2022/08/29 08:45:00;;;;;;;15.63;14.33;;;26.50;99.90;;;;;;4972653;28;20261;-79
2022/08/29 08:47:35;;;;;;;15.43;13.80;;;26.50;99.90;;;;;;4971948;28;20272;-79
2022/08/29 09:09:16;;;;;;;16.07;14.83;;;26.00;99.90;;;;;;4982887;28;20287;-79
2022/08/29 09:11:56;;;;;;;13.30;12.30;;;26.40;99.90;;;;;;4990850;28;20201;-78
2022/08/29 09:14:41;;;;;;;13.07;12.07;;;26.40;99.90;;;;;;4988390;28;20209;-78
2022/08/29 09:17:12;;;;;;;9.50;8.63;;;26.60;99.90;;;;;;4988847;28;20229;-78
2022/08/29 09:19:39;;;;;;;10.03;9.23;;;26.80;99.90;;;;;;4986505;28;20659;-79
2022/08/29 09:22:14;;;;;;;9.27;8.47;;;27.00;99.90;;;;;;4982800;28;20667;-78
2022/08/29 09:24:47;;;;;;;7.27;6.57;;;27.40;99.90;;;;;;4984821;28;20212;-78
2022/08/29 09:27:20;;;;;;;12.83;11.93;;;27.30;99.90;;;;;;4985172;28;20194;-78
2022/08/29 09:29:48;;;;;;;10.80;9.87;;;27.30;99.90;;;;;;4990309;28;20250;-78
2022/08/29 09:32:15;;;;;;;9.10;7.17;;;27.10;99.90;;;;;;4984866;28;20201;-78
2022/08/29 09:34:45;;;;;;;14.73;13.63;;;27.10;99.90;;;;;;4986027;28;20201;-78
2022/08/29 09:37:31;;;;;;;12.17;11.27;;;26.60;99.90;;;;;;4986358;28;20202;-79
2022/08/29 09:40:05;;;;;;;9.50;7.95;;;26.70;99.90;;;;;;4985913;28;20467;-78
2022/08/29 09:42:36;;;;;;;13.13;12.03;;;26.90;99.90;;;;;;4993034;28;20255;-80
2022/08/29 09:45:15;;;;;;;13.27;12.13;;;27.10;99.90;;;;;;4992418;28;20709;-78
2022/08/29 09:47:41;;;;;;;12.53;11.63;;;27.40;99.90;;;;;;4988858;28;20228;-76
2022/08/29 09:50:18;;;;;;;13.13;12.13;;;27.70;99.90;;;;;;4989899;28;20221;-77
2022/08/29 09:52:52;;;;;;;12.53;11.53;;;27.80;99.90;;;;;;4993784;28;20662;-77
2022/08/29 09:55:27;;;;;;;12.67;11.67;;;28.00;99.90;;;;;;4987153;28;20737;-78
2022/08/29 09:57:57;;;;;;;13.07;11.97;;;28.10;99.90;;;;;;4993188;28;20232;-76
2022/08/29 10:00:28;;;;;;;13.40;12.30;;;28.00;99.90;;;;;;4988490;28;20280;-77
2022/08/29 10:02:57;;;;;;;12.77;11.87;;;27.50;99.90;;;;;;4990937;28;20201;-77
2022/08/29 10:05:33;;;;;;;12.73;11.73;;;27.60;99.90;;;;;;4988734;28;20198;-78
2022/08/29 10:08:01;;;;;;;12.67;11.57;;;27.70;99.90;;;;;;4989930;28;20224;-77
2022/08/29 10:10:34;;;;;;;13.00;11.90;;;27.30;99.90;;;;;;4986680;28;20241;-78
2022/08/29 10:13:07;;;;;;;11.93;11.03;;;27.10;99.90;;;;;;4989218;28;20248;-77
2022/08/29 10:15:40;;;;;;;12.57;11.47;;;27.20;99.90;;;;;;4992869;28;20205;-77
2022/08/29 10:18:20;;;;;;;11.90;11.07;;;27.40;99.90;;;;;;4988330;28;20580;-77
2022/08/29 10:20:54;;;;;;;12.10;11.00;;;27.30;99.90;;;;;;4990903;28;20224;-79
2022/08/29 10:23:29;;;;;;;11.33;10.53;;;27.20;99.90;;;;;;4988973;28;20221;-80
2022/08/29 10:25:59;;;;;;;11.50;10.70;;;27.10;99.90;;;;;;4993179;28;20662;-83
2022/08/29 10:28:41;;;;;;;12.13;11.07;;;27.30;99.90;;;;;;4983665;28;20222;-79
2022/08/29 10:31:12;;;;;;;12.67;11.37;;;27.20;99.90;;;;;;4988932;28;20228;-78
2022/08/29 10:34:08;;;;;;;11.43;10.63;;;27.30;99.90;;;;;;4995340;28;20209;-78
2022/08/29 10:36:39;;;;;;;11.00;10.10;;;27.30;99.90;;;;;;4994234;28;20205;-78
2022/08/29 10:39:13;;;;;;;11.70;10.80;;;27.40;99.90;;;;;;4994821;28;20197;-78
2022/08/29 10:41:54;;;;;;;12.03;11.13;;;27.40;99.90;;;;;;4993458;28;20201;-78
2022/08/29 10:44:28;;;;;;;12.17;11.20;;;27.20;99.90;;;;;;4994561;28;20189;-77
2022/08/29 10:47:11;;;;;;;11.67;10.50;;;26.80;99.90;;;;;;4990568;28;20247;-80
2022/08/29 10:49:55;;;;;;;10.83;9.93;;;26.70;99.90;;;;;;4994696;28;20691;-79
2022/08/29 10:52:28;;;;;;;11.30;10.30;;;26.60;99.90;;;;;;4985316;28;20198;-79
2022/08/29 10:55:08;;;;;;;11.70;10.80;;;26.70;99.90;;;;;;4989882;28;20216;-78
2022/08/29 10:57:52;;;;;;;11.07;10.10;;;26.70;99.90;;;;;;4993476;28;20212;-79
2022/08/29 11:00:20;;;;;;;11.80;10.87;;;26.50;99.90;;;;;;4991406;28;20713;-80
2022/08/29 11:02:55;;;;;;;11.57;10.67;;;26.40;99.90;;;;;;4994064;28;20205;-79
2022/08/29 11:05:26;;;;;;;8.55;7.53;;;26.40;99.90;;;;;;4988870;28;20444;-79
2022/08/29 11:08:02;;;;;;;6.17;5.30;;;26.50;99.90;;;;;;4992975;28;20275;-81
2022/08/29 11:10:38;;;;;;;13.57;12.47;;;26.30;99.90;;;;;;4988334;28;20212;-82
2022/08/29 11:13:12;;;;;;;11.93;11.03;;;26.30;99.90;;;;;;4979592;28;20211;-81
2022/08/29 11:15:43;;;;;;;7.75;7.03;;;26.30;99.90;;;;;;4975984;28;20446;-77
2022/08/29 11:18:23;;;;;;;7.10;5.60;;;26.20;99.90;;;;;;4983359;28;20197;-79
2022/08/29 11:20:54;;;;;;;11.40;10.50;;;26.10;99.90;;;;;;4981938;28;20225;-78
2022/08/29 11:23:30;;;;;;;11.10;10.20;;;26.20;99.90;;;;;;4990258;28;20204;-78
2022/08/29 11:26:00;;;;;;;11.30;8.70;;;26.20;99.90;;;;;;4979273;28;20204;-79
2022/08/29 11:28:38;;;;;;;7.00;6.37;;;26.30;99.90;;;;;;4986487;28;20694;-79
2022/08/29 11:31:14;;;;;;;7.37;5.27;;;26.50;99.90;;;;;;4992597;28;20212;-78
2022/08/29 11:33:48;;;;;;;7.00;5.53;;;26.50;99.90;;;;;;4989265;28;20259;-77
2022/08/29 11:36:35;;;;;;;6.00;5.40;;;26.50;99.90;;;;;;4991718;28;20209;-82
2022/08/29 11:39:34;;;;;;;8.33;7.43;;;26.60;99.90;;;;;;4986416;28;20249;-78
2022/08/29 11:42:05;;;;;;;7.73;6.00;;;26.80;99.90;;;;;;4983931;28;20202;-78
2022/08/29 11:44:36;;;;;;;7.00;5.60;;;26.50;99.90;;;;;;4993573;28;20252;-79
2022/08/29 11:47:39;;;;;;;7.00;6.13;;;26.40;99.90;;;;;;4985701;28;20746;-78
2022/08/29 11:50:28;;;;;;;7.83;6.53;;;26.40;99.90;;;;;;4988632;28;20225;-78
2022/08/29 11:52:58;;;;;;;5.90;5.30;;;26.50;99.90;;;;;;4993572;28;20289;-79
2022/08/29 11:55:36;;;;;;;7.07;6.10;;;26.60;99.90;;;;;;4989989;28;20221;-79
2022/08/29 11:58:07;;;;;;;8.80;6.03;;;26.50;99.90;;;;;;4977422;28;20201;-78
2022/08/29 12:00:49;;;;;;;12.07;11.07;;;26.40;99.90;;;;;;4973356;28;20226;-78
2022/08/29 12:03:55;;;;;;;11.87;10.80;;;26.00;99.90;;;;;;4976798;28;20193;-80
2022/08/29 12:06:41;;;;;;;11.67;10.70;;;25.80;99.90;;;;;;4986371;28;20205;-79
2022/08/29 12:09:23;;;;;;;11.07;10.30;;;25.60;99.90;;;;;;4993312;28;20201;-78
2022/08/29 12:12:27;;;;;;;10.60;9.80;;;25.40;99.90;;;;;;4992100;28;20255;-79
2022/08/29 12:14:54;;;;;;;11.27;10.43;;;25.50;99.90;;;;;;4991274;28;20275;-76
2022/08/29 12:17:47;;;;;;;11.33;10.33;;;25.70;99.90;;;;;;5005932;28;20252;-78
2022/08/29 12:25:47;;;;;;;12.07;11.07;;;26.00;99.90;;;;;;4953449;29;20592;-78
2022/08/29 12:28:41;;;;;;;5.90;5.30;;;25.90;99.90;;;;;;4952073;28;20206;-77
2022/08/29 12:31:30;;;;;;;5.70;5.10;;;25.90;99.90;;;;;;4946149;28;20297;-77
2022/08/29 12:34:15;;;;;;;5.33;4.83;;;26.00;99.90;;;;;;4956477;28;20206;-78
2022/08/29 12:36:55;;;;;;;8.23;5.83;;;26.20;99.90;;;;;;4957087;28;20203;-79
2022/08/29 12:39:58;;;;;;;6.23;5.40;;;26.10;99.90;;;;;;4956403;28;20285;-78
2022/08/29 12:42:35;;;;;;;6.70;5.93;;;25.90;99.90;;;;;;4922949;28;20270;-78
2022/08/29 12:45:05;;;;;;;5.83;5.23;;;26.00;99.90;;;;;;4949558;28;20562;-78
2022/08/29 12:47:35;;;;;;;6.20;5.40;;;26.10;99.90;;;;;;4956981;28;20262;-79
2022/08/29 12:50:06;;;;;;;9.07;8.33;;;26.20;99.90;;;;;;4956931;28;20652;-78
2022/08/29 12:52:35;;;;;;;9.83;8.80;;;26.30;99.90;;;;;;4957036;28;20207;-77
2022/08/29 12:55:19;;;;;;;9.70;8.97;;;26.20;99.90;;;;;;4956492;28;20215;-78
2022/08/29 12:57:47;;;;;;;8.73;7.90;;;26.10;99.90;;;;;;4955342;28;20202;-79
2022/08/29 13:00:20;;;;;;;6.83;5.93;;;26.20;99.90;;;;;;4955298;28;20218;-77
2022/08/29 13:02:58;;;;;;;7.70;6.53;;;26.20;99.90;;;;;;4955512;28;20241;-77
2022/08/29 13:05:29;;;;;;;6.10;4.77;;;26.10;99.90;;;;;;4956403;28;20202;-79
2022/08/29 13:07:59;;;;;;;9.37;8.47;;;26.20;99.90;;;;;;4955295;28;20205;-78
2022/08/29 13:10:27;;;;;;;7.97;7.23;;;26.10;99.90;;;;;;4954745;28;20692;-76
2022/08/29 13:13:03;;;;;;;8.27;7.47;;;26.10;99.90;;;;;;4954896;29;20637;-76
2022/08/29 13:15:30;;;;;;;7.90;7.20;;;26.30;99.90;;;;;;4957242;28;20198;-78
2022/08/29 13:17:57;;;;;;;8.60;7.80;;;26.30;99.90;;;;;;4957314;28;20194;-77
2022/08/29 13:20:44;;;;;;;8.80;8.00;;;26.20;99.90;;;;;;4954339;28;20596;-78